Time;durP1;ratioP1;P1;durP2;ratioP2;P2;SDS_P1;SDS_P2;PMS_P1;PMS_P2;Temp;Humidity;BMP_temperature;BMP_pressure;BME280_temperature;BME280_humidity;BME280_pressure;Samples;Min_cycle;Max_cycle;Signal;HPM_P1;HPM_P2
2022/06/04 00:04:29;;;;;;;;;;;16.30;1.00;;;;;;10326458;28;84935;-47
2022/06/04 00:09:29;;;;;;;;;;;16.20;1.00;;;;;;10346405;28;84175;-49
2022/06/04 00:19:50;;;;;;;;;;;16.00;1.00;;;;;;10308382;28;86133;-49
2022/06/04 00:24:53;;;;;;;;;;;15.90;1.00;;;;;;10344550;28;84740;-49
2022/06/04 00:29:53;;;;;;;;;;;15.90;1.00;;;;;;10327871;28;87110;-48
2022/06/04 00:34:54;;;;;;;;;;;15.90;1.00;;;;;;10306609;28;84285;-47
2022/06/04 00:39:57;;;;;;;;;;;15.80;1.00;;;;;;10287808;28;85318;-48
2022/06/04 00:45:16;;;;;;;;;;;15.60;1.00;;;;;;10287897;28;84819;-48
2022/06/04 00:50:18;;;;;;;;;;;15.60;1.00;;;;;;10299346;28;84171;-48
2022/06/04 00:55:19;;;;;;;;;;;15.50;1.00;;;;;;10326867;28;84980;-48
2022/06/04 01:00:24;;;;;;;;;;;15.40;1.00;;;;;;10327487;28;84201;-49
2022/06/04 01:05:34;;;;;;;;;;;15.20;1.00;;;;;;10325187;28;84988;-51
2022/06/04 01:10:49;;;;;;;;;;;15.10;1.00;;;;;;10327624;28;84937;-51
2022/06/04 01:15:53;;;;;;;;;;;15.10;1.00;;;;;;10327278;28;84975;-45
2022/06/04 01:20:56;;;;;;;;;;;15.00;1.00;;;;;;10325009;28;85940;-49
2022/06/04 01:26:00;;;;;;;;;;;15.00;1.00;;;;;;10289527;28;84878;-51
2022/06/04 01:31:03;;;;;;;;;;;14.80;1.00;;;;;;10298799;28;84326;-48
2022/06/04 01:36:39;;;;;;;;;;;14.70;1.00;;;;;;10318112;28;84248;-48
2022/06/04 01:41:45;;;;;;;;;;;14.60;1.00;;;;;;10250503;28;85903;-50
2022/06/04 01:46:52;;;;;;;;;;;14.60;1.00;;;;;;10315456;28;84930;-45
2022/06/04 01:51:55;;;;;;;;;;;14.60;1.00;;;;;;10286686;28;84145;-49
2022/06/04 01:56:59;;;;;;;;;;;14.70;1.00;;;;;;10325966;28;84156;-49
2022/06/04 02:02:01;;;;;;;;;;;14.60;1.00;;;;;;10319158;28;85901;-50
2022/06/04 02:12:22;;;;;;;;;;;14.40;1.00;;;;;;10324755;28;83989;-47
2022/06/04 02:17:24;;;;;;;;;;;14.40;1.00;;;;;;10325868;28;84481;-48
2022/06/04 02:22:25;;;;;;;;;;;14.40;1.00;;;;;;10324593;28;84204;-48
2022/06/04 02:27:25;;;;;;;;;;;14.30;1.00;;;;;;10324924;28;84225;-48
2022/06/04 02:32:26;;;;;;;;;;;14.20;1.00;;;;;;10290406;28;84229;-46
2022/06/04 02:37:49;;;;;;;;;;;14.20;1.00;;;;;;10284274;28;84132;-48
2022/06/04 02:42:56;;;;;;;;;;;14.10;1.00;;;;;;10302244;28;84718;-46
2022/06/04 02:48:01;;;;;;;;;;;14.00;1.00;;;;;;10325283;28;84841;-46
2022/06/04 02:53:04;;;;;;;;;;;13.90;1.00;;;;;;10325194;28;84950;-47
2022/06/04 02:58:10;;;;;;;;;;;13.90;1.00;;;;;;10324955;28;85845;-47
2022/06/04 03:03:12;;;;;;;;;;;13.80;1.00;;;;;;10319042;28;84307;-47
2022/06/04 03:08:12;;;;;;;;;;;13.80;1.00;;;;;;10323359;28;84922;-47
2022/06/04 03:13:13;;;;;;;;;;;13.90;1.00;;;;;;10328967;28;84992;-50
2022/06/04 03:18:14;;;;;;;;;;;13.70;1.00;;;;;;10331952;28;84993;-47
2022/06/04 03:23:15;;;;;;;;;;;13.70;1.00;;;;;;10330002;28;86899;-47
2022/06/04 03:28:16;;;;;;;;;;;13.60;1.00;;;;;;10331782;28;84941;-50
2022/06/04 03:33:16;;;;;;;;;;;13.60;1.00;;;;;;10305705;28;84836;-48
2022/06/04 03:38:17;;;;;;;;;;;13.60;1.00;;;;;;10289326;28;84857;-46
2022/06/04 03:43:17;;;;;;;;;;;13.60;1.00;;;;;;10288403;28;87107;-46
2022/06/04 03:48:18;;;;;;;;;;;13.60;1.00;;;;;;10290833;28;84681;-47
2022/06/04 03:53:18;;;;;;;;;;;13.60;1.00;;;;;;10292590;28;84906;-47
2022/06/04 03:58:19;;;;;;;;;;;13.60;1.00;;;;;;10292550;28;84005;-51
2022/06/04 04:03:20;;;;;;;;;;;13.60;1.00;;;;;;10312312;28;84797;-49
2022/06/04 04:08:22;;;;;;;;;;;13.70;1.00;;;;;;10330845;28;84129;-47
2022/06/04 04:13:23;;;;;;;;;;;13.80;1.00;;;;;;10330563;28;85117;-49
2022/06/04 04:18:23;;;;;;;;;;;13.90;1.00;;;;;;10301422;28;84869;-49
2022/06/04 04:23:24;;;;;;;;;;;13.90;1.00;;;;;;10287381;28;84253;-51
2022/06/04 04:28:24;;;;;;;;;;;14.00;1.00;;;;;;10290134;28;84897;-47
2022/06/04 04:33:25;;;;;;;;;;;14.10;1.00;;;;;;10326622;28;84920;-47
2022/06/04 04:38:25;;;;;;;;;;;14.20;1.00;;;;;;10323692;28;84082;-48
2022/06/04 04:43:26;;;;;;;;;;;14.30;1.00;;;;;;10320445;28;84927;-49
2022/06/04 04:48:26;;;;;;;;;;;14.40;1.00;;;;;;10307689;28;84950;-46
2022/06/04 04:53:27;;;;;;;;;;;14.50;1.00;;;;;;10306920;28;84784;-48
2022/06/04 04:58:28;;;;;;;;;;;14.50;1.00;;;;;;10306790;28;84879;-54
2022/06/04 05:03:29;;;;;;;;;;;14.50;1.00;;;;;;10318088;28;84811;-54
2022/06/04 05:08:30;;;;;;;;;;;14.50;1.00;;;;;;10333465;28;85129;-47
2022/06/04 05:13:30;;;;;;;;;;;14.60;1.00;;;;;;10334314;28;84781;-50
2022/06/04 05:18:31;;;;;;;;;;;14.70;1.00;;;;;;10328987;28;85630;-48
2022/06/04 05:23:32;;;;;;;;;;;14.70;1.00;;;;;;10326163;28;84883;-50
2022/06/04 05:28:33;;;;;;;;;;;14.80;1.00;;;;;;10326988;28;84256;-47
2022/06/04 05:33:33;;;;;;;;;;;14.80;1.00;;;;;;10323401;28;84892;-49
2022/06/04 05:38:37;;;;;;;;;;;14.90;1.00;;;;;;10317788;28;84678;-47
2022/06/04 05:43:39;;;;;;;;;;;15.00;1.00;;;;;;10323931;28;85344;-46
2022/06/04 05:48:40;;;;;;;;;;;15.20;1.00;;;;;;10322903;28;84551;-47
2022/06/04 05:53:41;;;;;;;;;;;15.40;1.00;;;;;;10314109;28;84306;-49
2022/06/04 05:58:41;;;;;;;;;;;15.60;1.00;;;;;;10325407;28;84932;-50
2022/06/04 06:03:43;;;;;;;;;;;15.80;1.00;;;;;;10322037;28;85839;-49
2022/06/04 06:08:43;;;;;;;;;;;16.10;1.00;;;;;;10324352;28;84163;-51
2022/06/04 06:13:46;;;;;;;;;;;16.20;99.90;;;;;;10325289;28;84078;-48
2022/06/04 06:18:47;;;;;;;;;;;16.30;99.90;;;;;;10321323;28;84743;-49
2022/06/04 06:23:48;;;;;;;;;;;16.50;99.90;;;;;;10320221;28;84134;-47
2022/06/04 06:28:49;;;;;;;;;;;16.50;99.90;;;;;;10313489;28;86051;-50
2022/06/04 06:33:50;;;;;;;;;;;16.50;99.90;;;;;;10278234;28;84147;-51
2022/06/04 06:38:50;;;;;;;;;;;16.60;99.90;;;;;;10303278;28;85056;-50
2022/06/04 06:43:51;;;;;;;;;;;16.70;99.90;;;;;;10316742;28;84877;-48
2022/06/04 06:48:57;;;;;;;;;;;16.90;99.90;;;;;;10317061;28;84135;-60
2022/06/04 06:53:58;;;;;;;;;;;17.00;21.60;;;;;;10300930;28;84823;-56
2022/06/04 06:58:59;;;;;;;;;;;17.10;1.00;;;;;;10280256;28;84127;-60
2022/06/04 07:04:01;;;;;;;;;;;17.30;1.00;;;;;;10286849;28;86136;-57
2022/06/04 07:09:04;;;;;;;;;;;17.30;1.00;;;;;;10311723;28;84691;-54
2022/06/04 07:14:04;;;;;;;;;;;17.30;1.00;;;;;;10318573;28;84688;-63
2022/06/04 07:19:05;;;;;;;;;;;17.40;1.00;;;;;;10313268;28;84405;-64
2022/06/04 07:24:06;;;;;;;;;;;17.50;1.00;;;;;;10299284;28;84808;-60
2022/06/04 07:29:07;;;;;;;;;;;17.60;1.00;;;;;;10303049;28;84761;-60
2022/06/04 07:34:08;;;;;;;;;;;17.80;1.00;;;;;;10300809;28;84801;-48
2022/06/04 07:39:09;;;;;;;;;;;18.00;99.90;;;;;;10314572;28;85704;-50
2022/06/04 07:44:11;;;;;;;;;;;18.00;99.90;;;;;;10318248;28;84222;-48
2022/06/04 07:49:12;;;;;;;;;;;17.90;1.00;;;;;;10322282;28;84929;-51
2022/06/04 07:54:14;;;;;;;;;;;18.20;1.00;;;;;;10323913;28;84228;-49
2022/06/04 07:59:16;;;;;;;;;;;18.60;99.90;;;;;;10330782;28;84152;-46
2022/06/04 08:04:16;;;;;;;;;;;18.60;1.00;;;;;;10330922;28;84122;-50
2022/06/04 08:09:17;;;;;;;;;;;18.80;1.00;;;;;;10332784;28;84109;-52
2022/06/04 08:14:19;;;;;;;;;;;18.90;1.00;;;;;;10329621;28;86156;-48
2022/06/04 08:19:24;;;;;;;;;;;19.20;99.90;;;;;;10328926;28;85146;-49
2022/06/04 08:24:24;;;;;;;;;;;19.40;99.90;;;;;;10326052;28;85555;-53
2022/06/04 08:29:27;;;;;;;;;;;19.60;99.90;;;;;;10326446;28;84959;-49
2022/06/04 08:34:27;;;;;;;;;;;19.70;99.90;;;;;;10325515;28;84290;-50
2022/06/04 08:39:28;;;;;;;;;;;19.80;1.00;;;;;;10324352;28;84946;-47
2022/06/04 08:44:35;;;;;;;;;;;19.70;1.00;;;;;;10340065;28;85950;-48
2022/06/04 08:49:39;;;;;;;;;;;19.80;75.40;;;;;;10325764;28;85276;-47
2022/06/04 09:00:14;;;;;;;;;;;20.10;50.80;;;;;;10283323;28;84186;-54
2022/06/04 09:05:25;;;;;;;;;;;20.30;1.00;;;;;;10287373;28;85229;-55
2022/06/04 09:10:29;;;;;;;;;;;20.50;1.00;;;;;;10265124;28;84966;-53
2022/06/04 09:15:35;;;;;;;;;;;21.10;99.70;;;;;;10288167;28;84007;-53
2022/06/04 09:20:38;;;;;;;;;;;21.30;1.00;;;;;;10286008;28;84706;-55
2022/06/04 09:25:47;;;;;;;;;;;21.80;1.00;;;;;;10268768;28;85959;-56
2022/06/04 09:31:00;;;;;;;;;;;22.10;1.00;;;;;;10281918;28;84762;-54
2022/06/04 09:36:03;;;;;;;;;;;22.00;1.00;;;;;;10281043;28;106119;-53
2022/06/04 09:41:05;;;;;;;;;;;21.80;1.00;;;;;;10273415;28;84319;-53
2022/06/04 09:46:07;;;;;;;;;;;21.70;1.00;;;;;;10273193;28;84260;-57
2022/06/04 09:51:33;;;;;;;;;;;21.70;1.00;;;;;;10283674;28;84896;-57
2022/06/04 09:56:36;;;;;;;;;;;21.90;10.40;;;;;;10280991;28;84213;-53
2022/06/04 10:01:37;;;;;;;;;;;22.10;1.00;;;;;;10270593;28;85145;-57
2022/06/04 10:06:38;;;;;;;;;;;22.30;1.00;;;;;;10273286;28;85105;-58
2022/06/04 10:11:49;;;;;;;;;;;22.50;1.00;;;;;;10274988;28;84863;-56
2022/06/04 10:16:49;;;;;;;;;;;22.70;1.00;;;;;;10272784;28;85153;-49
2022/06/04 10:22:04;;;;;;;;;;;23.80;61.20;;;;;;10266023;28;86384;-53
2022/06/04 10:27:08;;;;;;;;;;;24.30;99.90;;;;;;10276335;28;84289;-55
2022/06/04 10:32:11;;;;;;;;;;;24.30;1.00;;;;;;10272217;28;84122;-55
2022/06/04 10:37:18;;;;;;;;;;;24.70;1.00;;;;;;10274884;28;86688;-54
2022/06/04 10:42:37;;;;;;;;;;;24.90;1.00;;;;;;10257332;28;84417;-55
2022/06/04 10:47:46;;;;;;;;;;;25.50;99.90;;;;;;10274959;28;84277;-55
2022/06/04 10:53:00;;;;;;;;;;;26.80;1.00;;;;;;10276464;28;84932;-54
2022/06/04 10:58:08;;;;;;;;;;;27.40;99.90;;;;;;10280303;28;85078;-54
2022/06/04 11:03:16;;;;;;;;;;;27.60;99.90;;;;;;10276551;28;86205;-52
2022/06/04 11:08:30;;;;;;;;;;;27.80;1.00;;;;;;10272881;28;84969;-56
2022/06/04 11:13:35;;;;;;;;;;;27.80;1.00;;;;;;10274303;28;84790;-53
2022/06/04 11:18:40;;;;;;;;;;;28.40;1.00;;;;;;10285018;28;84172;-51
2022/06/04 11:24:07;;;;;;;;;;;28.00;1.00;;;;;;10272196;28;84418;-52
2022/06/04 11:29:09;;;;;;;;;;;27.60;1.00;;;;;;10232231;28;84280;-54
2022/06/04 11:34:10;;;;;;;;;;;26.70;1.00;;;;;;10274572;28;84301;-59
2022/06/04 11:39:22;;;;;;;;;;;26.00;1.00;;;;;;10272834;28;84216;-57
2022/06/04 11:44:49;;;;;;;;;;;25.90;30.00;;;;;;10271373;28;84898;-61
2022/06/04 11:49:56;;;;;;;;;;;26.20;48.50;;;;;;10280661;28;84996;-64
2022/06/04 11:55:25;;;;;;;;;;;26.20;99.90;;;;;;10279801;28;84947;-61
2022/06/04 12:00:31;;;;;;;;;;;25.70;99.90;;;;;;10251508;28;87803;-61
2022/06/04 12:05:50;;;;;;;;;;;25.80;99.90;;;;;;10284764;28;84232;-59
2022/06/04 12:11:01;;;;;;;;;;;25.60;99.90;;;;;;10266783;28;84300;-60
2022/06/04 12:16:20;;;;;;;;;;;26.20;99.90;;;;;;10283847;28;84989;-60
2022/06/04 12:26:49;;;;;;;;;;;27.00;1.00;;;;;;10263563;28;86915;-62
2022/06/04 12:31:54;;;;;;;;;;;27.10;1.00;;;;;;10282580;28;84127;-60
2022/06/04 12:36:55;;;;;;;;;;;27.70;1.00;;;;;;10278479;28;84324;-58
2022/06/04 12:42:00;;;;;;;;;;;28.40;1.00;;;;;;10278508;28;85002;-59
2022/06/04 12:47:33;;;;;;;;;;;28.80;1.00;;;;;;10284730;28;84915;-60
2022/06/04 12:52:40;;;;;;;;;;;29.80;1.00;;;;;;10259767;28;84268;-58
2022/06/04 12:58:01;;;;;;;;;;;30.80;1.00;;;;;;10283105;28;84207;-61
2022/06/04 13:03:08;;;;;;;;;;;30.10;99.90;;;;;;10282010;28;84693;-58
2022/06/04 13:08:23;;;;;;;;;;;29.30;99.90;;;;;;10284993;28;85012;-58
2022/06/04 13:13:26;;;;;;;;;;;29.30;99.90;;;;;;10283035;28;84302;-60
2022/06/04 13:18:33;;;;;;;;;;;30.10;99.90;;;;;;10287355;28;84190;-60
2022/06/04 13:23:52;;;;;;;;;;;30.00;99.90;;;;;;10287285;28;84058;-61
2022/06/04 13:28:52;;;;;;;;;;;29.30;99.90;;;;;;10282247;28;85566;-60
2022/06/04 13:33:54;;;;;;;;;;;29.60;99.90;;;;;;10282667;28;84036;-60
2022/06/04 13:38:56;;;;;;;;;;;29.50;99.90;;;;;;10280849;28;84666;-60
2022/06/04 13:43:57;;;;;;;;;;;30.40;99.90;;;;;;10278737;28;84275;-59
2022/06/04 13:49:18;;;;;;;;;;;30.40;99.90;;;;;;10282051;28;84926;-58
2022/06/04 13:54:23;;;;;;;;;;;30.00;99.90;;;;;;10270701;28;85215;-59
2022/06/04 13:59:27;;;;;;;;;;;29.30;99.90;;;;;;10270240;28;84860;-60
2022/06/04 14:09:52;;;;;;;;;;;28.70;99.90;;;;;;10261212;28;87058;-59
2022/06/04 14:15:02;;;;;;;;;;;27.80;99.90;;;;;;10278591;28;84778;-60
2022/06/04 14:20:21;;;;;;;;;;;26.90;99.90;;;;;;10265281;28;84216;-60
2022/06/04 14:25:41;;;;;;;;;;;26.60;1.00;;;;;;10286588;28;85421;-57
2022/06/04 14:31:00;;;;;;;;;;;26.30;1.00;;;;;;10281079;28;84884;-63
2022/06/04 14:36:02;;;;;;;;;;;26.00;1.00;;;;;;10277809;28;84732;-61
2022/06/04 14:41:06;;;;;;;;;;;26.00;1.00;;;;;;10285389;28;85332;-64
2022/06/04 14:46:06;;;;;;;;;;;25.70;1.00;;;;;;10290477;28;84277;-66
2022/06/04 14:51:24;;;;;;;;;;;25.50;1.00;;;;;;10260722;28;85666;-62
2022/06/04 14:56:36;;;;;;;;;;;25.50;1.00;;;;;;10310296;22;85510;-61
2022/06/04 15:01:43;;;;;;;;;;;25.40;1.00;;;;;;10367547;28;84126;-61
2022/06/04 15:07:02;;;;;;;;;;;25.50;1.00;;;;;;10353328;28;84514;-61
2022/06/04 15:12:18;;;;;;;;;;;25.50;1.00;;;;;;10331646;28;86107;-60
2022/06/04 15:17:21;;;;;;;;;;;25.20;1.00;;;;;;10332455;28;84833;-63
2022/06/04 15:22:43;;;;;;;;;;;25.00;1.00;;;;;;10332352;28;84542;-62
2022/06/04 15:27:55;;;;;;;;;;;25.10;1.00;;;;;;10317917;28;84944;-60
2022/06/04 15:38:26;;;;;;;;;;;25.30;1.00;;;;;;10327619;28;84328;-63
2022/06/04 15:43:34;;;;;;;;;;;25.20;1.00;;;;;;10344421;28;86932;-63
2022/06/04 15:48:36;;;;;;;;;;;25.10;1.00;;;;;;10326253;28;84751;-63
2022/06/04 16:04:00;;;;;;;3.65;2.60;;;24.70;99.10;;;;;;10357581;28;83343;-55
2022/06/04 16:09:05;;;;;;;3.00;2.50;;;24.70;99.90;;;;;;10359927;28;83605;-56
2022/06/04 16:14:14;;;;;;;2.95;2.53;;;24.80;99.90;;;;;;10316361;22;83471;-61
2022/06/04 16:19:56;;;;;;;2.55;2.35;;;24.50;99.90;;;;;;10276039;28;82933;-64
2022/06/04 16:25:09;;;;;;;2.58;2.35;;;24.40;99.90;;;;;;10203346;28;82937;-64
2022/06/04 16:30:20;;;;;;;3.35;2.38;;;24.40;99.90;;;;;;10238291;28;83027;-62
2022/06/04 16:35:21;;;;;;;3.15;2.42;;;24.30;99.90;;;;;;10235279;28;83060;-64
2022/06/04 16:45:49;;;;;;;7.07;4.68;;;24.20;1.00;;;;;;10237390;28;82871;-66
2022/06/04 16:50:50;;;;;;;2.97;2.63;;;24.30;99.90;;;;;;10234278;28;83021;-64
2022/06/04 16:55:51;;;;;;;3.55;2.78;;;24.20;99.90;;;;;;10234418;28;82867;-60
2022/06/04 17:01:08;;;;;;;4.13;3.15;;;24.20;1.00;;;;;;10232449;28;85532;-62
2022/06/04 17:06:30;;;;;;;2.90;2.50;;;24.10;1.00;;;;;;10232765;28;83372;-62
2022/06/04 17:11:54;;;;;;;3.97;3.35;;;24.10;1.00;;;;;;10223063;28;83328;-62
2022/06/04 17:17:43;;;;;;;3.03;2.53;;;23.90;1.00;;;;;;10203095;28;85556;-61
2022/06/04 17:23:11;;;;;;;2.95;2.65;;;23.90;1.00;;;;;;10181058;28;83109;-62
2022/06/04 17:28:23;;;;;;;3.65;3.10;;;23.70;1.00;;;;;;10208855;28;82891;-60
2022/06/04 17:33:43;;;;;;;3.33;2.45;;;23.60;88.70;;;;;;10208913;28;83005;-61
2022/06/04 17:39:13;;;;;;;2.85;2.63;;;23.80;99.90;;;;;;10213826;28;83475;-61
2022/06/04 17:44:14;;;;;;;3.78;3.08;;;23.60;99.00;;;;;;10201602;28;83549;-61
2022/06/04 17:49:16;;;;;;;5.13;3.08;;;23.50;99.90;;;;;;10215471;28;83363;-60
2022/06/04 17:54:19;;;;;;;2.85;2.60;;;23.40;99.90;;;;;;10209013;28;83099;-60
2022/06/04 17:59:20;;;;;;;3.13;2.78;;;23.40;99.90;;;;;;10205825;28;82949;-63
2022/06/04 18:04:21;;;;;;;3.33;3.03;;;23.40;99.90;;;;;;10204881;28;83373;-63
2022/06/04 18:09:22;;;;;;;3.22;2.92;;;23.30;1.00;;;;;;10206349;28;83406;-63
2022/06/04 18:14:23;;;;;;;3.45;2.80;;;23.30;1.00;;;;;;10207732;28;83147;-63
2022/06/04 18:19:23;;;;;;;4.32;2.70;;;23.20;1.00;;;;;;10204529;28;84359;-62
2022/06/04 18:24:24;;;;;;;3.28;2.78;;;23.20;99.90;;;;;;10208118;28;83279;-61
2022/06/04 18:29:25;;;;;;;3.63;2.67;;;23.10;99.90;;;;;;10201849;28;83479;-59
2022/06/04 18:34:25;;;;;;;3.42;2.83;;;23.00;99.90;;;;;;10206046;28;83102;-62
2022/06/04 18:39:26;;;;;;;3.05;2.78;;;22.90;1.00;;;;;;10204599;28;83414;-62
2022/06/04 18:55:10;;;;;;;3.30;3.00;;;22.70;1.00;;;;;;10204671;28;83025;-61
2022/06/04 19:00:11;;;;;;;3.40;3.05;;;22.60;99.90;;;;;;10206020;28;83211;-60
2022/06/04 19:05:12;;;;;;;3.08;2.47;;;22.50;1.00;;;;;;10207445;28;83742;-61
2022/06/04 19:10:12;;;;;;;2.60;2.35;;;22.40;99.90;;;;;;10205022;28;84059;-63
2022/06/04 19:15:14;;;;;;;2.80;2.53;;;22.30;1.00;;;;;;10203765;28;83042;-60
2022/06/04 19:25:34;;;;;;;3.13;2.78;;;22.10;1.00;;;;;;10205090;28;82896;-60
2022/06/04 19:30:36;;;;;;;3.42;2.92;;;21.90;99.90;;;;;;10206462;28;83168;-60
2022/06/04 19:35:36;;;;;;;3.47;2.78;;;21.80;1.00;;;;;;10205956;28;83222;-56
2022/06/04 19:40:37;;;;;;;3.40;3.10;;;21.70;1.00;;;;;;10202721;28;83366;-59
2022/06/04 19:45:44;;;;;;;4.72;3.08;;;21.60;1.00;;;;;;10181151;28;83430;-58
2022/06/04 19:50:45;;;;;;;3.13;2.70;;;21.50;7.70;;;;;;10203290;28;83375;-56
2022/06/04 19:55:46;;;;;;;3.50;2.90;;;21.40;99.90;;;;;;10202337;28;84221;-60
2022/06/04 20:00:47;;;;;;;6.63;3.45;;;21.30;99.90;;;;;;10203461;28;83023;-59
2022/06/04 20:05:48;;;;;;;3.80;3.15;;;21.10;1.00;;;;;;10203245;28;83061;-59
2022/06/04 20:10:49;;;;;;;3.72;2.78;;;21.00;1.00;;;;;;10199947;28;84744;-58
2022/06/04 20:15:49;;;;;;;3.53;3.05;;;20.90;1.00;;;;;;10201655;28;83735;-60
2022/06/04 20:20:50;;;;;;;4.88;3.58;;;20.80;1.00;;;;;;10201624;28;84479;-60
2022/06/04 20:25:51;;;;;;;4.10;3.10;;;20.80;1.00;;;;;;10203570;28;82875;-60
2022/06/04 20:30:58;;;;;;;4.03;2.47;;;20.70;1.00;;;;;;10205237;28;83180;-57
2022/06/04 20:35:59;;;;;;;2.88;2.58;;;20.60;1.00;;;;;;10204154;28;85302;-57
2022/06/04 20:41:10;;;;;;;3.08;2.78;;;20.50;1.00;;;;;;10190108;28;84716;-57
2022/06/04 20:46:13;;;;;;;4.07;2.53;;;20.40;99.90;;;;;;10208557;28;82932;-60
2022/06/04 20:51:17;;;;;;;30.95;13.45;;;20.20;99.90;;;;;;10209704;28;84417;-56
2022/06/04 20:56:24;;;;;;;3.95;2.70;;;20.20;99.90;;;;;;10212231;28;83166;-57
2022/06/04 21:01:26;;;;;;;3.58;2.95;;;20.00;99.90;;;;;;10211745;28;84257;-58
2022/06/04 21:06:32;;;;;;;3.85;2.70;;;19.90;99.90;;;;;;10213623;28;83098;-55
2022/06/04 21:11:32;;;;;;;5.35;3.13;;;19.90;99.90;;;;;;10208551;28;83598;-55
2022/06/04 21:16:33;;;;;;;3.80;2.67;;;19.70;1.00;;;;;;10215172;28;82864;-58
2022/06/04 21:21:35;;;;;;;3.17;2.50;;;19.70;99.90;;;;;;10212258;28;83757;-59
2022/06/04 21:26:38;;;;;;;2.85;2.55;;;19.60;99.90;;;;;;10214024;28;83047;-59
2022/06/04 21:31:42;;;;;;;4.20;2.50;;;19.50;99.90;;;;;;10215985;28;83102;-61
2022/06/04 21:42:02;;;;;;;8.00;4.70;;;19.30;99.90;;;;;;10208415;28;82872;-58
2022/06/04 21:47:04;;;;;;;3.28;2.22;;;19.20;99.90;;;;;;10211722;28;84144;-59
2022/06/04 21:52:07;;;;;;;2.60;2.15;;;19.10;99.90;;;;;;10189458;28;83750;-56
2022/06/04 21:57:08;;;;;;;4.68;3.08;;;19.00;99.90;;;;;;10214344;28;85808;-59
2022/06/04 22:02:09;;;;;;;2.85;2.10;;;18.90;99.90;;;;;;10214136;28;83320;-57
2022/06/04 22:07:09;;;;;;;2.13;1.88;;;18.80;99.90;;;;;;10217459;28;83169;-53
2022/06/04 22:12:11;;;;;;;2.50;2.00;;;18.80;99.90;;;;;;10254911;23;84191;-53
2022/06/04 22:17:13;;;;;;;3.55;2.28;;;18.70;38.80;;;;;;10286817;28;85510;-45
2022/06/04 22:22:16;;;;;;;2.97;2.20;;;18.50;1.00;;;;;;10289197;28;83881;-53
2022/06/04 22:27:17;;;;;;;2.53;1.95;;;18.50;2.00;;;;;;10270373;28;82888;-53
2022/06/04 22:32:18;;;;;;;2.20;1.67;;;18.40;1.00;;;;;;10263045;28;85715;-56
2022/06/04 22:37:19;;;;;;;2.17;1.80;;;18.30;1.00;;;;;;10252426;28;83596;-53
2022/06/04 22:42:20;;;;;;;4.15;1.88;;;18.30;1.00;;;;;;10262726;28;83178;-54
2022/06/04 22:47:20;;;;;;;5.35;2.00;;;18.20;1.00;;;;;;10253336;28;83651;-52
2022/06/04 22:52:21;;;;;;;2.45;1.90;;;18.20;1.00;;;;;;10266048;28;83569;-52
2022/06/04 22:57:22;;;;;;;3.45;1.98;;;18.10;1.00;;;;;;10267891;28;83270;-49
2022/06/04 23:02:23;;;;;;;2.60;1.60;;;18.10;1.00;;;;;;10274569;28;83871;-53
2022/06/04 23:07:23;;;;;;;2.97;1.60;;;18.00;38.20;;;;;;10260463;28;85403;-52
2022/06/04 23:23:06;;;;;;;2.70;1.90;;;17.80;99.90;;;;;;10211186;28;82925;-51
2022/06/04 23:28:09;;;;;;;4.00;1.90;;;17.70;99.90;;;;;;10244556;28;83276;-51
2022/06/04 23:33:09;;;;;;;2.88;1.80;;;17.70;1.00;;;;;;10245824;28;83213;-49
2022/06/04 23:38:10;;;;;;;2.28;1.80;;;17.60;1.00;;;;;;10245520;28;83740;-49
2022/06/04 23:43:12;;;;;;;3.28;1.98;;;17.50;1.00;;;;;;10262205;28;83963;-49
2022/06/04 23:48:15;;;;;;;4.00;1.60;;;17.50;1.00;;;;;;10234322;28;83685;-51
2022/06/04 23:53:22;;;;;;;3.58;1.90;;;17.40;1.00;;;;;;10205220;28;83354;-56
2022/06/04 23:58:22;;;;;;;2.90;1.85;;;17.30;1.00;;;;;;10205005;28;83256;-56
